Clear Creek, Kentucky
Current Conditions -  °F | °C
As of 5:15 PM on Saturday 20 Dec 2014 (Local Time) from K1A6 Reporting Station
Overcast Overcast  
Wind Chill: 42°   Ceiling: 4800
Heat Index: 42°   Visibility: 10mi
Dew Point: 29°   Wind: 3mph
Humidity: 61%   Direction: 360°N
Pressure: 30.22"   Gusts: NA
Location:  36.7417°N, 83.6911°W
Report Text: K1A6 202215Z AUTO 36003KT 10SM OVC048 05/M02 A3022 RMK AO2 T00531016
Loading
Personal Weather Stations






























Interactive Weather Map New forecast layout! Learn more

10-Day Weather Forecast

Advertisements
Track Severe Weather on mobile